sensor_id;sensor_type;location;lat;lon;timestamp;temperature;humidity
31783;DHT22;18351;47.560;9.708;2024-01-11T00:00:36;-0.40;99.90
31783;DHT22;18351;47.560;9.708;2024-01-11T00:03:03;-0.40;99.90
31783;DHT22;18351;47.560;9.708;2024-01-11T00:05:28;-0.40;99.90
31783;DHT22;18351;47.560;9.708;2024-01-11T00:07:54;-0.50;99.90
31783;DHT22;18351;47.560;9.708;2024-01-11T00:10:20;-0.40;99.90
31783;DHT22;18351;47.560;9.708;2024-01-11T00:12:46;-0.40;99.90
31783;DHT22;18351;47.560;9.708;2024-01-11T00:15:12;-0.40;99.90
31783;DHT22;18351;47.560;9.708;2024-01-11T00:17:37;-0.40;99.90
31783;DHT22;18351;47.560;9.708;2024-01-11T00:20:03;-0.40;99.90
31783;DHT22;18351;47.560;9.708;2024-01-11T00:22:29;-0.40;99.90
31783;DHT22;18351;47.560;9.708;2024-01-11T00:24:54;-0.40;99.90
31783;DHT22;18351;47.560;9.708;2024-01-11T00:27:20;-0.50;99.90
31783;DHT22;18351;47.560;9.708;2024-01-11T00:29:46;-0.50;99.90
31783;DHT22;18351;47.560;9.708;2024-01-11T00:32:11;-0.50;99.90
31783;DHT22;18351;47.560;9.708;2024-01-11T00:34:37;-0.60;99.90
31783;DHT22;18351;47.560;9.708;2024-01-11T00:37:03;-0.60;99.90
31783;DHT22;18351;47.560;9.708;2024-01-11T00:39:29;-0.70;99.90
31783;DHT22;18351;47.560;9.708;2024-01-11T00:41:55;-0.70;99.90
31783;DHT22;18351;47.560;9.708;2024-01-11T00:44:20;-0.70;99.90
31783;DHT22;18351;47.560;9.708;2024-01-11T00:46:46;-0.70;99.90
31783;DHT22;18351;47.560;9.708;2024-01-11T00:49:11;-0.70;99.90
31783;DHT22;18351;47.560;9.708;2024-01-11T00:51:37;-0.70;99.90
31783;DHT22;18351;47.560;9.708;2024-01-11T00:54:02;-0.70;99.90
31783;DHT22;18351;47.560;9.708;2024-01-11T00:56:28;-0.70;99.90
31783;DHT22;18351;47.560;9.708;2024-01-11T00:58:53;-0.70;99.90
31783;DHT22;18351;47.560;9.708;2024-01-11T01:01:19;-0.70;99.90
31783;DHT22;18351;47.560;9.708;2024-01-11T01:03:45;-0.70;99.90
31783;DHT22;18351;47.560;9.708;2024-01-11T01:06:10;-0.70;99.90
31783;DHT22;18351;47.560;9.708;2024-01-11T01:08:36;-0.70;99.90
31783;DHT22;18351;47.560;9.708;2024-01-11T01:11:02;-0.70;99.90
31783;DHT22;18351;47.560;9.708;2024-01-11T01:13:27;-0.70;99.90
31783;DHT22;18351;47.560;9.708;2024-01-11T01:15:53;-0.80;99.90
31783;DHT22;18351;47.560;9.708;2024-01-11T01:18:18;-0.80;99.90
31783;DHT22;18351;47.560;9.708;2024-01-11T01:20:44;-0.80;99.90
31783;DHT22;18351;47.560;9.708;2024-01-11T01:23:10;-0.80;99.90
31783;DHT22;18351;47.560;9.708;2024-01-11T01:25:35;-0.80;99.90
31783;DHT22;18351;47.560;9.708;2024-01-11T01:28:01;-0.90;99.90
31783;DHT22;18351;47.560;9.708;2024-01-11T01:30:27;-0.90;99.90
31783;DHT22;18351;47.560;9.708;2024-01-11T01:32:53;-0.90;99.90
31783;DHT22;18351;47.560;9.708;2024-01-11T01:35:19;-1.00;99.90
31783;DHT22;18351;47.560;9.708;2024-01-11T01:37:45;-1.00;99.90
31783;DHT22;18351;47.560;9.708;2024-01-11T01:40:11;-1.10;99.90
31783;DHT22;18351;47.560;9.708;2024-01-11T01:42:44;-1.00;99.90
31783;DHT22;18351;47.560;9.708;2024-01-11T01:45:10;-1.00;99.90
31783;DHT22;18351;47.560;9.708;2024-01-11T01:47:40;-0.90;99.90
31783;DHT22;18351;47.560;9.708;2024-01-11T01:50:07;-1.00;99.90
31783;DHT22;18351;47.560;9.708;2024-01-11T01:52:33;-1.00;99.90
31783;DHT22;18351;47.560;9.708;2024-01-11T01:55:01;-1.00;99.90
31783;DHT22;18351;47.560;9.708;2024-01-11T01:57:28;-1.00;99.90
31783;DHT22;18351;47.560;9.708;2024-01-11T01:59:54;-1.00;99.90
31783;DHT22;18351;47.560;9.708;2024-01-11T02:02:20;-1.00;99.90
31783;DHT22;18351;47.560;9.708;2024-01-11T02:04:46;-1.00;99.90
31783;DHT22;18351;47.560;9.708;2024-01-11T02:07:13;-1.10;99.90
31783;DHT22;18351;47.560;9.708;2024-01-11T02:09:40;-1.10;99.90
31783;DHT22;18351;47.560;9.708;2024-01-11T02:12:06;-1.10;99.90
31783;DHT22;18351;47.560;9.708;2024-01-11T02:14:34;-1.10;99.90
31783;DHT22;18351;47.560;9.708;2024-01-11T02:17:00;-1.10;99.90
31783;DHT22;18351;47.560;9.708;2024-01-11T02:19:27;-1.10;99.90
31783;DHT22;18351;47.560;9.708;2024-01-11T02:21:54;-1.10;99.90
31783;DHT22;18351;47.560;9.708;2024-01-11T02:24:20;-1.10;99.90
31783;DHT22;18351;47.560;9.708;2024-01-11T02:27:03;-1.10;99.90
31783;DHT22;18351;47.560;9.708;2024-01-11T02:29:29;-1.10;99.90
31783;DHT22;18351;47.560;9.708;2024-01-11T02:31:56;-1.10;99.90
31783;DHT22;18351;47.560;9.708;2024-01-11T02:34:25;-1.00;99.90
31783;DHT22;18351;47.560;9.708;2024-01-11T02:36:52;-1.00;99.90
31783;DHT22;18351;47.560;9.708;2024-01-11T02:39:19;-1.10;99.90
31783;DHT22;18351;47.560;9.708;2024-01-11T02:41:45;-1.10;99.90
31783;DHT22;18351;47.560;9.708;2024-01-11T02:44:11;-1.10;99.90
31783;DHT22;18351;47.560;9.708;2024-01-11T02:46:37;-1.10;99.90
31783;DHT22;18351;47.560;9.708;2024-01-11T02:49:02;-1.10;99.90
31783;DHT22;18351;47.560;9.708;2024-01-11T02:51:28;-1.10;99.90
31783;DHT22;18351;47.560;9.708;2024-01-11T02:53:53;-1.10;99.90
31783;DHT22;18351;47.560;9.708;2024-01-11T02:56:19;-1.10;99.90
31783;DHT22;18351;47.560;9.708;2024-01-11T02:58:45;-1.00;99.90
31783;DHT22;18351;47.560;9.708;2024-01-11T03:01:10;-1.00;99.90
31783;DHT22;18351;47.560;9.708;2024-01-11T03:03:36;-1.10;99.90
31783;DHT22;18351;47.560;9.708;2024-01-11T03:06:02;-1.10;99.90
31783;DHT22;18351;47.560;9.708;2024-01-11T03:08:28;-1.10;99.90
31783;DHT22;18351;47.560;9.708;2024-01-11T03:10:54;-1.10;99.90
31783;DHT22;18351;47.560;9.708;2024-01-11T03:13:20;-1.10;99.90
31783;DHT22;18351;47.560;9.708;2024-01-11T03:15:45;-1.10;99.90
31783;DHT22;18351;47.560;9.708;2024-01-11T03:18:11;-1.10;99.90
31783;DHT22;18351;47.560;9.708;2024-01-11T03:20:36;-1.10;99.90
31783;DHT22;18351;47.560;9.708;2024-01-11T03:23:02;-1.20;99.90
31783;DHT22;18351;47.560;9.708;2024-01-11T03:25:29;-1.10;99.90
31783;DHT22;18351;47.560;9.708;2024-01-11T03:27:55;-1.20;99.90
31783;DHT22;18351;47.560;9.708;2024-01-11T03:30:20;-1.20;99.90
31783;DHT22;18351;47.560;9.708;2024-01-11T03:32:46;-1.30;99.90
31783;DHT22;18351;47.560;9.708;2024-01-11T03:35:11;-1.30;99.90
31783;DHT22;18351;47.560;9.708;2024-01-11T03:37:37;-1.20;99.90
31783;DHT22;18351;47.560;9.708;2024-01-11T03:40:03;-1.30;99.90
31783;DHT22;18351;47.560;9.708;2024-01-11T03:42:29;-1.30;99.90
31783;DHT22;18351;47.560;9.708;2024-01-11T03:44:55;-1.30;99.90
31783;DHT22;18351;47.560;9.708;2024-01-11T03:47:21;-1.30;99.90
31783;DHT22;18351;47.560;9.708;2024-01-11T03:49:46;-1.30;99.90
31783;DHT22;18351;47.560;9.708;2024-01-11T03:52:12;-1.30;99.90
31783;DHT22;18351;47.560;9.708;2024-01-11T03:54:37;-1.40;99.90
31783;DHT22;18351;47.560;9.708;2024-01-11T03:57:03;-1.40;99.90
31783;DHT22;18351;47.560;9.708;2024-01-11T03:59:29;-1.40;99.90
31783;DHT22;18351;47.560;9.708;2024-01-11T04:01:55;-1.40;99.90
31783;DHT22;18351;47.560;9.708;2024-01-11T04:04:21;-1.40;99.90
31783;DHT22;18351;47.560;9.708;2024-01-11T04:06:47;-1.40;99.90
31783;DHT22;18351;47.560;9.708;2024-01-11T04:09:13;-1.40;99.90
31783;DHT22;18351;47.560;9.708;2024-01-11T04:11:39;-1.40;99.90
31783;DHT22;18351;47.560;9.708;2024-01-11T04:14:04;-1.40;99.90
31783;DHT22;18351;47.560;9.708;2024-01-11T04:16:30;-1.40;99.90
31783;DHT22;18351;47.560;9.708;2024-01-11T04:18:55;-1.50;99.90
31783;DHT22;18351;47.560;9.708;2024-01-11T04:21:27;-1.50;99.90
31783;DHT22;18351;47.560;9.708;2024-01-11T04:23:56;-1.50;99.90
31783;DHT22;18351;47.560;9.708;2024-01-11T04:26:22;-1.60;99.90
31783;DHT22;18351;47.560;9.708;2024-01-11T04:28:49;-1.60;99.90
31783;DHT22;18351;47.560;9.708;2024-01-11T04:31:15;-1.60;99.90
31783;DHT22;18351;47.560;9.708;2024-01-11T04:33:43;-1.70;99.90
31783;DHT22;18351;47.560;9.708;2024-01-11T04:36:09;-1.70;99.90
31783;DHT22;18351;47.560;9.708;2024-01-11T04:38:34;-1.70;99.90
31783;DHT22;18351;47.560;9.708;2024-01-11T04:41:00;-1.80;99.90
31783;DHT22;18351;47.560;9.708;2024-01-11T04:43:26;-1.80;99.90
31783;DHT22;18351;47.560;9.708;2024-01-11T04:45:51;-1.80;99.90
31783;DHT22;18351;47.560;9.708;2024-01-11T04:48:17;-1.80;99.90
31783;DHT22;18351;47.560;9.708;2024-01-11T04:50:44;-1.90;99.90
31783;DHT22;18351;47.560;9.708;2024-01-11T04:53:09;-2.00;99.90
31783;DHT22;18351;47.560;9.708;2024-01-11T04:55:35;-2.00;99.90
31783;DHT22;18351;47.560;9.708;2024-01-11T04:58:01;-2.00;99.90
31783;DHT22;18351;47.560;9.708;2024-01-11T05:00:26;-2.10;99.90
31783;DHT22;18351;47.560;9.708;2024-01-11T05:02:52;-2.10;99.90
31783;DHT22;18351;47.560;9.708;2024-01-11T05:05:17;-2.20;99.90
31783;DHT22;18351;47.560;9.708;2024-01-11T05:07:43;-2.20;99.90
31783;DHT22;18351;47.560;9.708;2024-01-11T05:10:08;-2.20;99.90
31783;DHT22;18351;47.560;9.708;2024-01-11T05:12:34;-2.20;99.90
31783;DHT22;18351;47.560;9.708;2024-01-11T05:15:00;-2.30;99.90
31783;DHT22;18351;47.560;9.708;2024-01-11T05:17:26;-2.30;99.90
31783;DHT22;18351;47.560;9.708;2024-01-11T05:19:52;-2.40;99.90
31783;DHT22;18351;47.560;9.708;2024-01-11T05:22:18;-2.40;99.90
31783;DHT22;18351;47.560;9.708;2024-01-11T05:24:43;-2.40;99.90
31783;DHT22;18351;47.560;9.708;2024-01-11T05:27:09;-2.40;99.90
31783;DHT22;18351;47.560;9.708;2024-01-11T05:29:34;-2.40;99.90
31783;DHT22;18351;47.560;9.708;2024-01-11T05:32:00;-2.40;99.90
31783;DHT22;18351;47.560;9.708;2024-01-11T05:34:26;-2.40;99.90
31783;DHT22;18351;47.560;9.708;2024-01-11T05:36:51;-2.40;99.90
31783;DHT22;18351;47.560;9.708;2024-01-11T05:39:17;-2.30;99.90
31783;DHT22;18351;47.560;9.708;2024-01-11T05:41:46;-2.20;99.90
31783;DHT22;18351;47.560;9.708;2024-01-11T05:44:11;-2.10;99.90
31783;DHT22;18351;47.560;9.708;2024-01-11T05:46:37;-2.10;99.90
31783;DHT22;18351;47.560;9.708;2024-01-11T05:49:02;-2.10;99.90
31783;DHT22;18351;47.560;9.708;2024-01-11T05:51:28;-2.10;99.90
31783;DHT22;18351;47.560;9.708;2024-01-11T05:53:54;-2.20;99.90
31783;DHT22;18351;47.560;9.708;2024-01-11T05:56:20;-2.20;99.90
31783;DHT22;18351;47.560;9.708;2024-01-11T05:58:46;-2.20;99.90
31783;DHT22;18351;47.560;9.708;2024-01-11T06:01:11;-2.30;99.90
31783;DHT22;18351;47.560;9.708;2024-01-11T06:03:37;-2.40;99.90
31783;DHT22;18351;47.560;9.708;2024-01-11T06:06:04;-2.50;99.90
31783;DHT22;18351;47.560;9.708;2024-01-11T06:08:30;-2.50;99.90
31783;DHT22;18351;47.560;9.708;2024-01-11T06:10:59;-2.50;99.90
31783;DHT22;18351;47.560;9.708;2024-01-11T06:13:25;-2.60;99.90
31783;DHT22;18351;47.560;9.708;2024-01-11T06:15:51;-2.60;99.90
31783;DHT22;18351;47.560;9.708;2024-01-11T06:18:17;-2.60;99.90
31783;DHT22;18351;47.560;9.708;2024-01-11T06:20:42;-2.50;99.90
31783;DHT22;18351;47.560;9.708;2024-01-11T06:23:08;-2.50;99.90
31783;DHT22;18351;47.560;9.708;2024-01-11T06:25:33;-2.60;99.90
31783;DHT22;18351;47.560;9.708;2024-01-11T06:27:59;-2.60;99.90
31783;DHT22;18351;47.560;9.708;2024-01-11T06:30:25;-2.70;99.90
31783;DHT22;18351;47.560;9.708;2024-01-11T06:32:50;-2.70;99.90
31783;DHT22;18351;47.560;9.708;2024-01-11T06:35:16;-2.80;99.90
31783;DHT22;18351;47.560;9.708;2024-01-11T06:37:41;-2.90;99.90
31783;DHT22;18351;47.560;9.708;2024-01-11T06:40:07;-2.90;99.90
31783;DHT22;18351;47.560;9.708;2024-01-11T06:42:34;-2.90;99.90
31783;DHT22;18351;47.560;9.708;2024-01-11T06:44:59;-2.90;99.90
31783;DHT22;18351;47.560;9.708;2024-01-11T06:47:25;-2.90;99.90
31783;DHT22;18351;47.560;9.708;2024-01-11T06:49:51;-2.90;99.90
31783;DHT22;18351;47.560;9.708;2024-01-11T06:52:16;-2.90;99.90
31783;DHT22;18351;47.560;9.708;2024-01-11T06:54:42;-2.90;99.90
31783;DHT22;18351;47.560;9.708;2024-01-11T06:57:07;-2.90;99.90
31783;DHT22;18351;47.560;9.708;2024-01-11T06:59:33;-2.90;99.90
31783;DHT22;18351;47.560;9.708;2024-01-11T07:01:59;-2.90;99.90
31783;DHT22;18351;47.560;9.708;2024-01-11T07:04:24;-2.90;99.90
31783;DHT22;18351;47.560;9.708;2024-01-11T07:06:50;-3.00;99.90
31783;DHT22;18351;47.560;9.708;2024-01-11T07:09:16;-3.00;99.90
31783;DHT22;18351;47.560;9.708;2024-01-11T07:11:43;-2.90;99.90
31783;DHT22;18351;47.560;9.708;2024-01-11T07:14:09;-3.00;99.90
31783;DHT22;18351;47.560;9.708;2024-01-11T07:16:35;-3.00;99.90
31783;DHT22;18351;47.560;9.708;2024-01-11T07:19:01;-3.10;99.90
31783;DHT22;18351;47.560;9.708;2024-01-11T07:21:26;-3.00;99.90
31783;DHT22;18351;47.560;9.708;2024-01-11T07:23:57;-2.90;99.90
31783;DHT22;18351;47.560;9.708;2024-01-11T07:26:23;-2.90;99.90
31783;DHT22;18351;47.560;9.708;2024-01-11T07:28:49;-2.90;99.90
31783;DHT22;18351;47.560;9.708;2024-01-11T07:31:15;-3.00;99.90
31783;DHT22;18351;47.560;9.708;2024-01-11T07:33:41;-3.00;99.90
31783;DHT22;18351;47.560;9.708;2024-01-11T07:36:07;-3.00;99.90
31783;DHT22;18351;47.560;9.708;2024-01-11T07:38:32;-3.00;99.90
31783;DHT22;18351;47.560;9.708;2024-01-11T07:40:58;-3.00;99.90
31783;DHT22;18351;47.560;9.708;2024-01-11T07:43:23;-3.00;99.90
31783;DHT22;18351;47.560;9.708;2024-01-11T07:45:49;-3.10;99.90
31783;DHT22;18351;47.560;9.708;2024-01-11T07:48:15;-3.00;99.90
31783;DHT22;18351;47.560;9.708;2024-01-11T07:50:41;-3.00;99.90
31783;DHT22;18351;47.560;9.708;2024-01-11T07:53:07;-3.10;99.90
31783;DHT22;18351;47.560;9.708;2024-01-11T07:55:32;-3.10;99.90
31783;DHT22;18351;47.560;9.708;2024-01-11T07:57:58;-3.10;99.90
31783;DHT22;18351;47.560;9.708;2024-01-11T08:00:23;-3.10;99.90
31783;DHT22;18351;47.560;9.708;2024-01-11T08:02:49;-3.00;99.90
31783;DHT22;18351;47.560;9.708;2024-01-11T08:05:15;-3.00;99.90
31783;DHT22;18351;47.560;9.708;2024-01-11T08:07:40;-3.00;99.90
31783;DHT22;18351;47.560;9.708;2024-01-11T08:10:07;-3.00;99.90
31783;DHT22;18351;47.560;9.708;2024-01-11T08:12:34;-2.90;99.90
31783;DHT22;18351;47.560;9.708;2024-01-11T08:15:00;-2.90;99.90
31783;DHT22;18351;47.560;9.708;2024-01-11T08:17:26;-2.90;99.90
31783;DHT22;18351;47.560;9.708;2024-01-11T08:19:51;-2.80;99.90
31783;DHT22;18351;47.560;9.708;2024-01-11T08:22:17;-2.80;99.90
31783;DHT22;18351;47.560;9.708;2024-01-11T08:24:43;-2.80;99.90
31783;DHT22;18351;47.560;9.708;2024-01-11T08:27:08;-2.80;99.90
31783;DHT22;18351;47.560;9.708;2024-01-11T08:29:34;-2.70;99.90
31783;DHT22;18351;47.560;9.708;2024-01-11T08:32:00;-2.70;99.90
31783;DHT22;18351;47.560;9.708;2024-01-11T08:34:29;-2.60;99.90
31783;DHT22;18351;47.560;9.708;2024-01-11T08:36:55;-2.60;99.90
31783;DHT22;18351;47.560;9.708;2024-01-11T08:39:20;-2.60;99.90
31783;DHT22;18351;47.560;9.708;2024-01-11T08:41:47;-2.70;99.90
31783;DHT22;18351;47.560;9.708;2024-01-11T08:44:13;-2.60;99.90
31783;DHT22;18351;47.560;9.708;2024-01-11T08:46:39;-2.50;99.90
31783;DHT22;18351;47.560;9.708;2024-01-11T08:49:04;-2.50;99.90
31783;DHT22;18351;47.560;9.708;2024-01-11T08:51:30;-2.50;99.90
31783;DHT22;18351;47.560;9.708;2024-01-11T08:53:57;-2.60;99.90
31783;DHT22;18351;47.560;9.708;2024-01-11T08:56:23;-2.60;99.90
31783;DHT22;18351;47.560;9.708;2024-01-11T08:58:49;-2.70;99.90
31783;DHT22;18351;47.560;9.708;2024-01-11T09:01:15;-2.70;99.90
31783;DHT22;18351;47.560;9.708;2024-01-11T09:03:40;-2.70;99.90
31783;DHT22;18351;47.560;9.708;2024-01-11T09:06:06;-2.60;99.90
31783;DHT22;18351;47.560;9.708;2024-01-11T09:08:32;-2.60;99.90
31783;DHT22;18351;47.560;9.708;2024-01-11T09:10:58;-2.70;99.90
31783;DHT22;18351;47.560;9.708;2024-01-11T09:13:24;-2.60;99.90
31783;DHT22;18351;47.560;9.708;2024-01-11T09:15:51;-2.70;99.90
31783;DHT22;18351;47.560;9.708;2024-01-11T09:18:17;-2.70;99.90
31783;DHT22;18351;47.560;9.708;2024-01-11T09:20:43;-2.60;99.90
31783;DHT22;18351;47.560;9.708;2024-01-11T09:23:09;-2.60;99.90
31783;DHT22;18351;47.560;9.708;2024-01-11T09:25:34;-2.60;99.90
31783;DHT22;18351;47.560;9.708;2024-01-11T09:28:00;-2.50;99.90
31783;DHT22;18351;47.560;9.708;2024-01-11T09:30:25;-2.50;99.90
31783;DHT22;18351;47.560;9.708;2024-01-11T09:32:51;-2.50;99.90
31783;DHT22;18351;47.560;9.708;2024-01-11T09:35:17;-2.40;99.90
31783;DHT22;18351;47.560;9.708;2024-01-11T09:37:43;-2.40;99.90
31783;DHT22;18351;47.560;9.708;2024-01-11T09:40:11;-2.30;99.90
31783;DHT22;18351;47.560;9.708;2024-01-11T09:42:37;-2.20;99.90
31783;DHT22;18351;47.560;9.708;2024-01-11T09:45:08;-2.30;99.90
31783;DHT22;18351;47.560;9.708;2024-01-11T09:47:36;-2.30;99.90
31783;DHT22;18351;47.560;9.708;2024-01-11T09:50:03;-2.30;99.90
31783;DHT22;18351;47.560;9.708;2024-01-11T09:52:28;-2.30;99.90
31783;DHT22;18351;47.560;9.708;2024-01-11T09:54:57;-2.30;99.90
31783;DHT22;18351;47.560;9.708;2024-01-11T09:57:26;-2.30;99.90
31783;DHT22;18351;47.560;9.708;2024-01-11T09:59:55;-2.30;99.90
31783;DHT22;18351;47.560;9.708;2024-01-11T10:02:23;-2.30;99.90
31783;DHT22;18351;47.560;9.708;2024-01-11T10:04:49;-2.30;99.90
31783;DHT22;18351;47.560;9.708;2024-01-11T10:07:16;-2.30;99.90
31783;DHT22;18351;47.560;9.708;2024-01-11T10:09:44;-2.30;99.90
31783;DHT22;18351;47.560;9.708;2024-01-11T10:12:10;-2.20;99.90
31783;DHT22;18351;47.560;9.708;2024-01-11T10:14:35;-2.30;99.90
31783;DHT22;18351;47.560;9.708;2024-01-11T10:17:03;-2.30;99.90
31783;DHT22;18351;47.560;9.708;2024-01-11T10:19:30;-2.30;99.90
31783;DHT22;18351;47.560;9.708;2024-01-11T10:21:55;-2.30;99.90
31783;DHT22;18351;47.560;9.708;2024-01-11T10:24:22;-2.40;99.90
31783;DHT22;18351;47.560;9.708;2024-01-11T10:26:57;-2.30;99.90
31783;DHT22;18351;47.560;9.708;2024-01-11T10:29:30;-2.40;99.90
31783;DHT22;18351;47.560;9.708;2024-01-11T10:31:56;-2.40;99.90
31783;DHT22;18351;47.560;9.708;2024-01-11T10:34:23;-2.40;99.90
31783;DHT22;18351;47.560;9.708;2024-01-11T10:36:50;-2.50;99.90
31783;DHT22;18351;47.560;9.708;2024-01-11T10:39:16;-2.50;99.90
31783;DHT22;18351;47.560;9.708;2024-01-11T10:41:51;-2.50;99.90
31783;DHT22;18351;47.560;9.708;2024-01-11T10:44:21;-2.50;99.90
31783;DHT22;18351;47.560;9.708;2024-01-11T10:46:50;-2.50;99.90
31783;DHT22;18351;47.560;9.708;2024-01-11T10:49:19;-2.50;99.90
31783;DHT22;18351;47.560;9.708;2024-01-11T10:51:52;-2.50;99.90
31783;DHT22;18351;47.560;9.708;2024-01-11T10:54:20;-2.60;99.90
31783;DHT22;18351;47.560;9.708;2024-01-11T10:56:47;-2.70;99.90
31783;DHT22;18351;47.560;9.708;2024-01-11T10:59:13;-2.80;99.90
31783;DHT22;18351;47.560;9.708;2024-01-11T11:01:40;-2.80;99.90
31783;DHT22;18351;47.560;9.708;2024-01-11T11:04:07;-2.80;99.90
31783;DHT22;18351;47.560;9.708;2024-01-11T11:06:35;-2.70;99.90
31783;DHT22;18351;47.560;9.708;2024-01-11T11:09:02;-2.70;99.90
31783;DHT22;18351;47.560;9.708;2024-01-11T11:11:30;-2.60;99.90
31783;DHT22;18351;47.560;9.708;2024-01-11T11:13:59;-2.60;99.90
31783;DHT22;18351;47.560;9.708;2024-01-11T11:16:26;-2.50;99.90
31783;DHT22;18351;47.560;9.708;2024-01-11T11:18:55;-2.40;99.90
31783;DHT22;18351;47.560;9.708;2024-01-11T11:21:21;-2.30;99.90
31783;DHT22;18351;47.560;9.708;2024-01-11T11:23:47;-2.30;99.90
31783;DHT22;18351;47.560;9.708;2024-01-11T11:26:14;-2.20;99.90
31783;DHT22;18351;47.560;9.708;2024-01-11T11:28:41;-2.00;99.90
31783;DHT22;18351;47.560;9.708;2024-01-11T11:31:07;-2.00;99.90
31783;DHT22;18351;47.560;9.708;2024-01-11T11:33:33;-2.00;99.90
31783;DHT22;18351;47.560;9.708;2024-01-11T11:36:00;-2.10;99.90
31783;DHT22;18351;47.560;9.708;2024-01-11T11:38:29;-1.90;99.90
31783;DHT22;18351;47.560;9.708;2024-01-11T11:40:57;-1.80;99.90
31783;DHT22;18351;47.560;9.708;2024-01-11T11:43:23;-1.70;99.90
31783;DHT22;18351;47.560;9.708;2024-01-11T11:45:51;-1.60;99.90
31783;DHT22;18351;47.560;9.708;2024-01-11T11:51:17;-1.50;99.90
31783;DHT22;18351;47.560;9.708;2024-01-11T11:53:43;-1.50;99.90
31783;DHT22;18351;47.560;9.708;2024-01-11T11:56:10;-1.50;99.90
31783;DHT22;18351;47.560;9.708;2024-01-11T11:58:36;-1.50;99.90
31783;DHT22;18351;47.560;9.708;2024-01-11T12:01:03;-1.50;99.90
31783;DHT22;18351;47.560;9.708;2024-01-11T12:03:30;-1.50;99.90
31783;DHT22;18351;47.560;9.708;2024-01-11T12:05:57;-1.60;99.90
31783;DHT22;18351;47.560;9.708;2024-01-11T12:08:24;-1.60;99.90
31783;DHT22;18351;47.560;9.708;2024-01-11T12:10:50;-1.60;99.90
31783;DHT22;18351;47.560;9.708;2024-01-11T12:13:16;-1.60;99.90
31783;DHT22;18351;47.560;9.708;2024-01-11T12:15:42;-1.70;99.90
31783;DHT22;18351;47.560;9.708;2024-01-11T12:18:08;-1.70;99.90
31783;DHT22;18351;47.560;9.708;2024-01-11T12:20:33;-1.70;99.90
31783;DHT22;18351;47.560;9.708;2024-01-11T12:22:59;-1.70;99.90
31783;DHT22;18351;47.560;9.708;2024-01-11T12:25:28;-1.60;99.90
31783;DHT22;18351;47.560;9.708;2024-01-11T12:27:54;-1.70;99.90
31783;DHT22;18351;47.560;9.708;2024-01-11T12:30:22;-1.60;99.90
31783;DHT22;18351;47.560;9.708;2024-01-11T12:32:49;-1.60;99.90
31783;DHT22;18351;47.560;9.708;2024-01-11T12:35:15;-1.50;99.90
31783;DHT22;18351;47.560;9.708;2024-01-11T12:37:51;-1.50;99.90
31783;DHT22;18351;47.560;9.708;2024-01-11T12:40:17;-1.50;99.90
31783;DHT22;18351;47.560;9.708;2024-01-11T12:42:43;-1.40;99.90
31783;DHT22;18351;47.560;9.708;2024-01-11T12:45:09;-1.40;99.90
31783;DHT22;18351;47.560;9.708;2024-01-11T12:47:35;-1.40;99.90
31783;DHT22;18351;47.560;9.708;2024-01-11T12:50:00;-1.50;99.90
31783;DHT22;18351;47.560;9.708;2024-01-11T12:52:26;-1.50;99.90
31783;DHT22;18351;47.560;9.708;2024-01-11T12:54:53;-1.50;99.90
31783;DHT22;18351;47.560;9.708;2024-01-11T12:57:19;-1.50;99.90
31783;DHT22;18351;47.560;9.708;2024-01-11T12:59:47;-1.60;99.90
31783;DHT22;18351;47.560;9.708;2024-01-11T13:02:14;-1.60;99.90
31783;DHT22;18351;47.560;9.708;2024-01-11T13:04:42;-1.70;99.90
31783;DHT22;18351;47.560;9.708;2024-01-11T13:07:10;-1.60;99.90
31783;DHT22;18351;47.560;9.708;2024-01-11T13:09:35;-1.50;99.90
31783;DHT22;18351;47.560;9.708;2024-01-11T13:12:01;-1.50;99.90
31783;DHT22;18351;47.560;9.708;2024-01-11T13:14:26;-1.50;99.90
31783;DHT22;18351;47.560;9.708;2024-01-11T13:16:54;-1.50;99.90
31783;DHT22;18351;47.560;9.708;2024-01-11T13:19:19;-1.50;99.90
31783;DHT22;18351;47.560;9.708;2024-01-11T13:21:45;-1.50;99.90
31783;DHT22;18351;47.560;9.708;2024-01-11T13:24:11;-1.40;99.90
31783;DHT22;18351;47.560;9.708;2024-01-11T13:26:38;-1.40;99.90
31783;DHT22;18351;47.560;9.708;2024-01-11T13:29:04;-1.50;99.90
31783;DHT22;18351;47.560;9.708;2024-01-11T13:31:32;-1.50;99.90
31783;DHT22;18351;47.560;9.708;2024-01-11T13:33:58;-1.60;99.90
31783;DHT22;18351;47.560;9.708;2024-01-11T13:36:24;-1.60;99.90
31783;DHT22;18351;47.560;9.708;2024-01-11T13:38:50;-1.50;99.90
31783;DHT22;18351;47.560;9.708;2024-01-11T13:41:16;-1.50;99.90
31783;DHT22;18351;47.560;9.708;2024-01-11T13:43:43;-1.30;99.90
31783;DHT22;18351;47.560;9.708;2024-01-11T13:46:08;-1.30;99.90
31783;DHT22;18351;47.560;9.708;2024-01-11T13:48:34;-1.40;99.90
31783;DHT22;18351;47.560;9.708;2024-01-11T13:51:01;-1.30;99.90
31783;DHT22;18351;47.560;9.708;2024-01-11T13:53:28;-1.20;99.90
31783;DHT22;18351;47.560;9.708;2024-01-11T13:55:54;-1.30;99.90
31783;DHT22;18351;47.560;9.708;2024-01-11T13:58:21;-1.30;99.90
31783;DHT22;18351;47.560;9.708;2024-01-11T14:00:46;-1.30;99.90
31783;DHT22;18351;47.560;9.708;2024-01-11T14:03:12;-1.30;99.90
31783;DHT22;18351;47.560;9.708;2024-01-11T14:05:38;-1.20;99.90
31783;DHT22;18351;47.560;9.708;2024-01-11T14:08:03;-1.20;99.90
31783;DHT22;18351;47.560;9.708;2024-01-11T14:10:32;-1.20;99.90
31783;DHT22;18351;47.560;9.708;2024-01-11T14:12:59;-1.20;99.90
31783;DHT22;18351;47.560;9.708;2024-01-11T14:15:25;-1.20;99.90
31783;DHT22;18351;47.560;9.708;2024-01-11T14:17:51;-1.20;99.90
31783;DHT22;18351;47.560;9.708;2024-01-11T14:20:16;-1.20;99.90
31783;DHT22;18351;47.560;9.708;2024-01-11T14:22:43;-1.20;99.90
31783;DHT22;18351;47.560;9.708;2024-01-11T14:25:18;-1.30;99.90
31783;DHT22;18351;47.560;9.708;2024-01-11T14:27:44;-1.30;99.90
31783;DHT22;18351;47.560;9.708;2024-01-11T14:30:11;-1.40;99.90
31783;DHT22;18351;47.560;9.708;2024-01-11T14:32:37;-1.40;99.90
31783;DHT22;18351;47.560;9.708;2024-01-11T14:35:03;-1.40;99.90
31783;DHT22;18351;47.560;9.708;2024-01-11T14:37:33;-1.40;99.90
31783;DHT22;18351;47.560;9.708;2024-01-11T14:39:59;-1.40;99.90
31783;DHT22;18351;47.560;9.708;2024-01-11T14:42:26;-1.50;99.90
31783;DHT22;18351;47.560;9.708;2024-01-11T14:44:51;-1.50;99.90
31783;DHT22;18351;47.560;9.708;2024-01-11T14:47:18;-1.50;99.90
31783;DHT22;18351;47.560;9.708;2024-01-11T14:49:43;-1.50;99.90
31783;DHT22;18351;47.560;9.708;2024-01-11T14:52:09;-1.60;99.90
31783;DHT22;18351;47.560;9.708;2024-01-11T14:54:35;-1.60;99.90
31783;DHT22;18351;47.560;9.708;2024-01-11T14:57:00;-1.60;99.90
31783;DHT22;18351;47.560;9.708;2024-01-11T14:59:26;-1.50;99.90
31783;DHT22;18351;47.560;9.708;2024-01-11T15:01:51;-1.60;99.90
31783;DHT22;18351;47.560;9.708;2024-01-11T15:04:17;-1.60;99.90
31783;DHT22;18351;47.560;9.708;2024-01-11T15:06:43;-1.60;99.90
31783;DHT22;18351;47.560;9.708;2024-01-11T15:09:10;-1.60;99.90
31783;DHT22;18351;47.560;9.708;2024-01-11T15:11:38;-1.60;99.90
31783;DHT22;18351;47.560;9.708;2024-01-11T15:14:05;-1.60;99.90
31783;DHT22;18351;47.560;9.708;2024-01-11T15:16:31;-1.60;99.90
31783;DHT22;18351;47.560;9.708;2024-01-11T15:18:57;-1.60;99.90
31783;DHT22;18351;47.560;9.708;2024-01-11T15:21:23;-1.60;99.90
31783;DHT22;18351;47.560;9.708;2024-01-11T15:23:48;-1.70;99.90
31783;DHT22;18351;47.560;9.708;2024-01-11T15:26:14;-1.70;99.90